createdAt,value
2022-11-10T00:00:14.623Z,55.09
2022-11-10T00:01:47.456Z,55.06
2022-11-10T00:03:19.463Z,55.59
2022-11-10T00:04:51.273Z,55.04
2022-11-10T00:06:23.035Z,54.88
2022-11-10T00:07:54.858Z,54.93
2022-11-10T00:09:26.673Z,55.40
2022-11-10T00:10:58.230Z,55.61
2022-11-10T00:12:30.989Z,55.01
2022-11-10T00:14:21.529Z,54.50
2022-11-10T00:16:11.790Z,55.33
2022-11-10T00:17:43.636Z,54.57
2022-11-10T00:19:15.224Z,54.71
2022-11-10T00:20:46.918Z,55.15
2022-11-10T00:22:18.635Z,54.74
2022-11-10T00:23:50.174Z,55.25
2022-11-10T00:25:21.779Z,55.38
2022-11-10T00:26:53.520Z,54.90
2022-11-10T00:28:25.174Z,55.04
2022-11-10T00:29:56.966Z,54.81
2022-11-10T00:31:28.797Z,54.72
2022-11-10T00:33:00.363Z,54.71
2022-11-10T00:34:32.028Z,54.50
2022-11-10T00:36:03.740Z,54.65
2022-11-10T00:37:35.351Z,54.67
2022-11-10T00:39:07.363Z,54.66
2022-11-10T00:40:39.319Z,54.94
2022-11-10T00:42:11.044Z,54.98
2022-11-10T00:43:42.866Z,55.70
2022-11-10T00:45:14.944Z,55.21
2022-11-10T00:46:46.883Z,56.06
2022-11-10T00:48:18.809Z,55.77
2022-11-10T00:49:50.579Z,55.83
2022-11-10T00:51:28.672Z,56.28
2022-11-10T00:53:00.339Z,55.89
2022-11-10T00:54:32.173Z,55.66
2022-11-10T00:56:04.737Z,55.62
2022-11-10T00:57:36.397Z,55.80
2022-11-10T00:59:08.077Z,56.01
2022-11-10T01:00:40.020Z,56.10
2022-11-10T01:02:11.772Z,55.76
2022-11-10T01:03:43.300Z,55.97
2022-11-10T01:05:14.923Z,56.10
2022-11-10T01:06:48.401Z,55.75
2022-11-10T01:08:20.165Z,56.25
2022-11-10T01:09:51.745Z,55.72
2022-11-10T01:11:24.389Z,55.83
2022-11-10T01:12:55.953Z,56.43
2022-11-10T01:14:27.550Z,56.16
2022-11-10T01:16:03.733Z,56.02
2022-11-10T01:17:35.362Z,55.81
2022-11-10T01:19:06.968Z,56.32
2022-11-10T01:20:38.876Z,55.93
2022-11-10T01:22:10.596Z,55.92
2022-11-10T01:23:43.029Z,56.57
2022-11-10T01:25:14.879Z,56.04
2022-11-10T01:26:46.833Z,56.56
2022-11-10T01:28:18.617Z,56.64
2022-11-10T01:29:50.555Z,56.11
2022-11-10T01:31:22.107Z,56.69
2022-11-10T01:32:55.242Z,56.36
2022-11-10T01:34:27.193Z,56.01
2022-11-10T01:35:59.278Z,56.30
2022-11-10T01:37:31.409Z,56.16
2022-11-10T01:39:03.177Z,55.94
2022-11-10T01:40:34.890Z,55.58
2022-11-10T01:42:06.939Z,56.13
2022-11-10T01:43:39.282Z,55.72
2022-11-10T01:45:23.519Z,56.37
2022-11-10T01:46:55.809Z,55.83
2022-11-10T01:48:30.900Z,55.76
2022-11-10T01:50:02.694Z,56.20
2022-11-10T01:51:35.689Z,56.13
2022-11-10T01:53:07.820Z,56.04
2022-11-10T01:54:40.995Z,56.17
2022-11-10T01:56:12.596Z,56.99
2022-11-10T01:57:44.504Z,56.34
2022-11-10T01:59:18.626Z,57.02
2022-11-10T02:00:51.091Z,56.39
2022-11-10T02:02:26.962Z,56.24
2022-11-10T02:03:59.908Z,56.25
2022-11-10T02:05:31.586Z,56.69
2022-11-10T02:07:03.332Z,56.69
2022-11-10T02:08:34.981Z,56.50
2022-11-10T02:10:13.593Z,56.45
2022-11-10T02:11:45.297Z,57.01
2022-11-10T02:13:18.086Z,56.30
2022-11-10T02:14:50.208Z,57.08
2022-11-10T02:16:22.105Z,56.75
2022-11-10T02:17:53.739Z,56.34
2022-11-10T02:19:26.059Z,56.42
2022-11-10T02:20:57.589Z,56.41
2022-11-10T02:22:29.208Z,56.55
2022-11-10T02:24:00.974Z,56.59
2022-11-10T02:25:32.564Z,56.85
2022-11-10T02:27:04.339Z,56.79
2022-11-10T02:28:36.454Z,56.69
2022-11-10T02:30:08.434Z,56.36
2022-11-10T02:31:40.205Z,56.31
2022-11-10T02:33:11.756Z,55.73
2022-11-10T02:34:43.766Z,56.10
2022-11-10T02:36:15.975Z,56.27
2022-11-10T02:37:48.205Z,56.41
2022-11-10T02:39:19.876Z,56.21
2022-11-10T02:40:51.836Z,56.59
2022-11-10T02:42:23.442Z,56.37
2022-11-10T02:43:55.100Z,56.67
2022-11-10T02:45:26.603Z,56.61
2022-11-10T02:46:58.236Z,56.36
2022-11-10T02:48:29.903Z,56.80
2022-11-10T02:50:01.457Z,57.21
2022-11-10T02:51:33.056Z,56.91
2022-11-10T02:53:04.644Z,56.91
2022-11-10T02:54:36.244Z,57.15
2022-11-10T02:56:08.126Z,57.04
2022-11-10T02:57:39.623Z,56.77
2022-11-10T02:59:11.148Z,57.08
2022-11-10T03:00:42.734Z,56.63
2022-11-10T03:02:14.364Z,57.08
2022-11-10T03:03:45.979Z,57.10
2022-11-10T03:05:17.669Z,56.95
2022-11-10T03:06:49.621Z,57.41
2022-11-10T03:08:21.678Z,56.99
2022-11-10T03:09:54.266Z,57.68
2022-11-10T03:11:31.881Z,57.37
2022-11-10T03:13:03.877Z,57.67
2022-11-10T03:14:35.959Z,57.05
2022-11-10T03:16:07.619Z,57.67
2022-11-10T03:17:39.797Z,57.73
2022-11-10T03:19:11.529Z,57.26
2022-11-10T03:20:43.069Z,56.85
2022-11-10T03:22:14.744Z,57.24
2022-11-10T03:23:46.242Z,57.50
2022-11-10T03:25:18.050Z,57.63
2022-11-10T03:26:49.763Z,57.23
2022-11-10T03:28:21.357Z,57.49
2022-11-10T03:29:52.963Z,56.70
2022-11-10T03:31:24.579Z,57.25
2022-11-10T03:32:56.267Z,56.97
2022-11-10T03:34:31.624Z,56.95
2022-11-10T03:36:03.965Z,57.51
2022-11-10T03:37:35.818Z,57.30
2022-11-10T03:39:07.741Z,57.49
2022-11-10T03:41:12.013Z,57.74
2022-11-10T03:42:31.285Z,57.69
2022-11-10T03:44:03.102Z,57.74
2022-11-10T03:45:35.192Z,57.11
2022-11-10T03:47:07.078Z,57.12
2022-11-10T03:48:39.253Z,57.32
2022-11-10T03:50:11.404Z,57.92
2022-11-10T03:51:43.539Z,57.73
2022-11-10T03:53:15.252Z,57.43
2022-11-10T03:54:46.785Z,57.95
2022-11-10T03:56:18.462Z,57.20
2022-11-10T03:57:50.413Z,57.27
2022-11-10T03:59:22.093Z,57.53
2022-11-10T04:00:54.828Z,57.42
2022-11-10T04:02:26.471Z,57.62
2022-11-10T04:03:58.040Z,57.99
2022-11-10T04:05:48.517Z,58.27
2022-11-10T04:07:38.824Z,57.57
2022-11-10T04:09:10.514Z,57.96
2022-11-10T04:10:42.150Z,57.99
2022-11-10T04:12:32.337Z,57.59
2022-11-10T04:14:22.835Z,57.59
2022-11-10T04:15:54.826Z,57.78
2022-11-10T04:17:26.373Z,58.09
2022-11-10T04:18:57.974Z,58.33
2022-11-10T04:20:30.154Z,57.51
2022-11-10T04:22:01.759Z,57.38
2022-11-10T04:23:36.605Z,58.13
2022-11-10T04:25:08.405Z,57.69
2022-11-10T04:26:40.887Z,58.17
2022-11-10T04:28:12.544Z,57.61
2022-11-10T04:29:44.105Z,57.48
2022-11-10T04:31:16.317Z,57.91
2022-11-10T04:32:48.575Z,57.66
2022-11-10T04:34:20.533Z,57.54
2022-11-10T04:35:52.086Z,58.26
2022-11-10T04:37:23.594Z,58.44
2022-11-10T04:38:58.230Z,58.54
2022-11-10T04:40:30.128Z,58.57
2022-11-10T04:42:03.047Z,58.55
2022-11-10T04:43:34.807Z,58.46
2022-11-10T04:45:06.919Z,58.25
2022-11-10T04:46:40.476Z,58.49
2022-11-10T04:48:12.226Z,58.18
2022-11-10T04:49:43.881Z,58.12
2022-11-10T04:51:15.811Z,57.87
2022-11-10T04:52:47.386Z,58.76
2022-11-10T04:54:18.852Z,58.76
2022-11-10T04:55:50.403Z,58.46
2022-11-10T04:57:21.994Z,58.58
2022-11-10T04:58:53.852Z,58.29
2022-11-10T05:00:25.966Z,58.93
2022-11-10T05:01:57.571Z,58.13
2022-11-10T05:03:29.369Z,58.62
2022-11-10T05:05:00.950Z,57.97
2022-11-10T05:06:32.538Z,58.08
2022-11-10T05:08:04.143Z,58.80
2022-11-10T05:09:35.630Z,58.98
2022-11-10T05:11:07.268Z,58.57
2022-11-10T05:12:38.817Z,58.60
2022-11-10T05:14:10.454Z,58.21
2022-11-10T05:15:42.320Z,58.32
2022-11-10T05:17:13.915Z,58.29
2022-11-10T05:18:45.475Z,58.35
2022-11-10T05:20:18.118Z,58.19
2022-11-10T05:21:49.797Z,58.33
2022-11-10T05:23:39.838Z,58.96
2022-11-10T05:25:11.517Z,58.10
2022-11-10T05:26:43.159Z,57.97
2022-11-10T05:28:16.674Z,58.45
2022-11-10T05:29:48.277Z,58.89
2022-11-10T05:31:19.872Z,58.16
2022-11-10T05:32:51.490Z,58.69
2022-11-10T05:34:23.342Z,58.78
2022-11-10T05:35:54.959Z,58.59
2022-11-10T05:37:26.679Z,58.74
2022-11-10T05:38:58.356Z,58.80
2022-11-10T05:40:30.023Z,58.88
2022-11-10T05:42:01.696Z,58.55
2022-11-10T05:43:33.267Z,58.57
2022-11-10T05:45:05.235Z,58.55
2022-11-10T05:46:36.877Z,58.48
2022-11-10T05:48:08.604Z,58.59
2022-11-10T05:49:40.209Z,58.42
2022-11-10T05:51:11.914Z,58.65
2022-11-10T05:52:49.910Z,58.59
2022-11-10T05:54:21.927Z,58.53
2022-11-10T05:55:53.674Z,58.85
2022-11-10T05:57:25.280Z,58.83
2022-11-10T05:58:56.999Z,58.83
2022-11-10T06:00:29.331Z,58.79
2022-11-10T06:02:00.910Z,58.69
2022-11-10T06:03:32.843Z,58.87
2022-11-10T06:05:04.551Z,58.96
2022-11-10T06:06:36.260Z,59.00
2022-11-10T06:08:08.054Z,58.81
2022-11-10T06:09:40.235Z,58.82
2022-11-10T06:11:11.917Z,58.87
2022-11-10T06:12:43.628Z,58.79
2022-11-10T06:14:15.277Z,58.88
2022-11-10T06:15:50.349Z,59.27
2022-11-10T06:17:22.560Z,58.93
2022-11-10T06:18:54.219Z,58.81
2022-11-10T06:20:25.822Z,59.38
2022-11-10T06:22:03.584Z,59.30
2022-11-10T06:23:38.707Z,59.58
2022-11-10T06:25:10.672Z,59.77
2022-11-10T06:26:42.499Z,59.42
2022-11-10T06:28:15.103Z,59.59
2022-11-10T06:29:46.693Z,59.58
2022-11-10T06:31:19.706Z,59.71
2022-11-10T06:32:51.305Z,59.63
2022-11-10T06:34:22.856Z,59.52
2022-11-10T06:35:54.560Z,59.51
2022-11-10T06:37:26.242Z,59.51
2022-11-10T06:38:57.742Z,59.49
2022-11-10T06:40:29.693Z,59.78
2022-11-10T06:42:01.312Z,59.24
2022-11-10T06:43:32.891Z,59.34
2022-11-10T06:45:04.682Z,59.46
2022-11-10T06:46:41.160Z,59.27
2022-11-10T06:48:14.367Z,59.06
2022-11-10T06:49:46.037Z,59.38
2022-11-10T06:51:18.290Z,59.31
2022-11-10T06:52:56.224Z,59.26
2022-11-10T06:54:27.960Z,59.33
2022-11-10T06:55:59.473Z,58.95
2022-11-10T06:57:31.036Z,59.28
2022-11-10T06:59:02.869Z,58.85
2022-11-10T07:00:34.636Z,58.79
2022-11-10T07:02:06.333Z,59.12
2022-11-10T07:03:41.363Z,59.25
2022-11-10T07:05:24.973Z,58.58
2022-11-10T07:06:56.638Z,58.75
2022-11-10T07:08:28.374Z,59.18
2022-11-10T07:10:05.693Z,58.60
2022-11-10T07:11:38.576Z,59.16
2022-11-10T07:13:10.570Z,58.58
2022-11-10T07:14:42.145Z,58.77
2022-11-10T07:16:13.971Z,58.71
2022-11-10T07:17:45.587Z,58.82
2022-11-10T07:19:17.337Z,58.89
2022-11-10T07:20:49.149Z,58.96
2022-11-10T07:22:20.791Z,59.15
2022-11-10T07:23:52.275Z,59.08
2022-11-10T07:25:24.096Z,58.87
2022-11-10T07:26:56.114Z,59.47
2022-11-10T07:28:28.573Z,58.99
2022-11-10T07:30:00.298Z,59.50
2022-11-10T07:31:32.302Z,59.59
2022-11-10T07:33:04.966Z,59.18
2022-11-10T07:34:36.536Z,59.25
2022-11-10T07:36:08.369Z,58.70
2022-11-10T07:37:39.962Z,59.06
2022-11-10T07:39:11.972Z,59.23
2022-11-10T07:40:43.589Z,59.40
2022-11-10T07:42:15.232Z,59.32
2022-11-10T07:43:46.712Z,59.92
2022-11-10T07:45:18.446Z,59.88
2022-11-10T07:46:49.953Z,59.88
2022-11-10T07:48:21.588Z,59.90
2022-11-10T07:49:53.264Z,60.07
2022-11-10T07:51:27.072Z,59.92
2022-11-10T07:53:08.036Z,60.47
2022-11-10T07:54:39.569Z,59.87
2022-11-10T07:56:11.150Z,60.41
2022-11-10T07:57:42.844Z,60.21
2022-11-10T07:59:14.472Z,60.01
2022-11-10T08:00:47.442Z,60.14
2022-11-10T08:02:19.089Z,60.24
2022-11-10T08:03:50.706Z,59.67
2022-11-10T08:05:22.586Z,60.20
2022-11-10T08:06:54.995Z,60.33
2022-11-10T08:08:26.724Z,60.10
2022-11-10T08:09:58.518Z,59.83
2022-11-10T08:11:30.244Z,60.30
2022-11-10T08:13:02.635Z,60.32
2022-11-10T08:14:34.466Z,59.87
2022-11-10T08:16:06.274Z,59.41
2022-11-10T08:17:37.959Z,60.06
2022-11-10T08:19:09.562Z,60.09
2022-11-10T08:20:42.599Z,59.63
2022-11-10T08:22:14.591Z,59.39
2022-11-10T08:23:46.316Z,59.59
2022-11-10T08:25:18.197Z,59.56
2022-11-10T08:26:50.231Z,60.00
2022-11-10T08:28:22.151Z,60.25
2022-11-10T08:29:53.689Z,60.33
2022-11-10T08:31:25.409Z,60.23
2022-11-10T08:32:57.595Z,59.83
2022-11-10T08:34:29.249Z,59.53
2022-11-10T08:36:01.005Z,59.49
2022-11-10T08:37:32.509Z,59.69
2022-11-10T08:39:04.351Z,59.58
2022-11-10T08:40:36.024Z,59.66
2022-11-10T08:42:07.577Z,59.26
2022-11-10T08:43:39.190Z,59.52
2022-11-10T08:45:14.133Z,59.87
2022-11-10T08:46:47.148Z,59.56
2022-11-10T08:48:19.584Z,59.53
2022-11-10T08:49:51.381Z,59.28
2022-11-10T08:51:23.006Z,59.80
2022-11-10T08:52:54.714Z,59.91
2022-11-10T08:54:26.321Z,60.05
2022-11-10T08:56:00.639Z,60.05
2022-11-10T08:57:32.157Z,59.99
2022-11-10T08:59:03.739Z,59.94
2022-11-10T09:00:35.500Z,59.36
2022-11-10T09:02:08.890Z,60.43
2022-11-10T09:03:40.715Z,60.42
2022-11-10T09:05:12.385Z,60.73
2022-11-10T09:06:43.998Z,60.31
2022-11-10T09:08:15.696Z,60.27
2022-11-10T09:10:06.080Z,59.66
2022-11-10T09:11:38.766Z,59.57
2022-11-10T09:13:11.874Z,59.61
2022-11-10T09:14:43.912Z,59.43
2022-11-10T09:16:15.748Z,60.02
2022-11-10T09:17:47.547Z,59.61
2022-11-10T09:19:20.252Z,59.49
2022-11-10T09:20:52.338Z,59.73
2022-11-10T09:22:24.275Z,59.34
2022-11-10T09:23:55.857Z,59.49
2022-11-10T09:25:27.661Z,59.35
2022-11-10T09:26:59.298Z,58.92
2022-11-10T09:28:31.212Z,59.48
2022-11-10T09:30:03.336Z,59.56
2022-11-10T09:31:35.113Z,58.85
2022-11-10T09:33:06.784Z,59.03
2022-11-10T09:34:39.182Z,59.33
2022-11-10T09:36:10.845Z,59.22
2022-11-10T09:37:42.492Z,58.86
2022-11-10T09:39:15.408Z,59.16
2022-11-10T09:40:50.939Z,58.84
2022-11-10T09:42:35.557Z,59.28
2022-11-10T09:44:23.279Z,59.21
2022-11-10T09:45:55.752Z,59.78
2022-11-10T09:48:01.313Z,59.70
2022-11-10T09:49:35.262Z,59.64
2022-11-10T09:51:07.073Z,59.40
2022-11-10T09:52:39.131Z,59.29
2022-11-10T09:54:19.567Z,58.87
2022-11-10T09:55:55.309Z,59.29
2022-11-10T09:57:27.659Z,59.46
2022-11-10T09:58:59.484Z,59.21
2022-11-10T10:00:31.449Z,58.86
2022-11-10T10:02:31.359Z,58.91
2022-11-10T10:04:26.419Z,58.39
2022-11-10T10:06:02.772Z,59.20
2022-11-10T10:07:56.849Z,59.41
2022-11-10T10:09:38.081Z,59.04
2022-11-10T10:11:09.801Z,59.03
2022-11-10T10:12:41.900Z,59.69
2022-11-10T10:14:33.806Z,59.47
2022-11-10T10:16:23.935Z,59.41
2022-11-10T10:17:55.690Z,59.08
2022-11-10T10:19:27.375Z,59.79
2022-11-10T10:21:08.411Z,59.45
2022-11-10T10:23:00.570Z,58.99
2022-11-10T10:24:33.831Z,59.25
2022-11-10T10:26:05.477Z,59.27
2022-11-10T10:27:37.034Z,58.87
2022-11-10T10:29:10.249Z,59.32
2022-11-10T10:30:41.837Z,58.85
2022-11-10T10:32:13.569Z,59.10
2022-11-10T10:33:45.570Z,59.06
2022-11-10T10:35:19.327Z,58.92
2022-11-10T10:36:51.033Z,58.74
2022-11-10T10:38:22.895Z,58.73
2022-11-10T10:39:55.598Z,58.74
2022-11-10T10:41:28.119Z,58.78
2022-11-10T10:42:59.997Z,58.57
2022-11-10T10:44:31.667Z,58.45
2022-11-10T10:46:07.488Z,58.46
2022-11-10T10:47:39.671Z,58.62
2022-11-10T10:49:33.190Z,58.69
2022-11-10T10:51:05.873Z,58.93
2022-11-10T10:52:37.653Z,59.11
2022-11-10T10:54:24.506Z,58.95
2022-11-10T10:56:06.379Z,58.54
2022-11-10T10:57:38.079Z,58.02
2022-11-10T10:59:10.149Z,58.06
2022-11-10T11:00:44.127Z,58.12
2022-11-10T11:02:30.997Z,58.05
2022-11-10T11:04:05.572Z,57.94
2022-11-10T11:05:37.834Z,57.39
2022-11-10T11:07:19.699Z,57.55
2022-11-10T11:09:01.740Z,57.12
2022-11-10T11:10:34.330Z,56.73
2022-11-10T11:12:07.574Z,56.59
2022-11-10T11:13:39.272Z,56.83
2022-11-10T11:15:12.164Z,56.55
2022-11-10T11:17:07.281Z,56.27
2022-11-10T11:18:39.726Z,56.34
2022-11-10T11:20:15.614Z,56.28
2022-11-10T11:21:47.326Z,55.70
2022-11-10T11:23:19.082Z,55.63
2022-11-10T11:24:57.033Z,55.68
2022-11-10T11:26:34.921Z,55.53
2022-11-10T11:28:19.882Z,55.23
2022-11-10T11:30:07.059Z,55.06
2022-11-10T11:31:57.540Z,54.87
2022-11-10T11:33:58.216Z,54.75
2022-11-10T11:35:48.616Z,54.72
2022-11-10T11:37:33.763Z,54.63
2022-11-10T11:39:11.406Z,54.86
2022-11-10T11:40:47.477Z,54.71
2022-11-10T11:42:19.008Z,54.43
2022-11-10T11:44:09.591Z,54.15
2022-11-10T11:45:55.904Z,53.75
2022-11-10T11:47:39.637Z,53.67
2022-11-10T11:49:30.945Z,53.78
2022-11-10T11:51:14.424Z,53.36
2022-11-10T11:53:04.876Z,53.44
2022-11-10T11:54:45.400Z,53.08
2022-11-10T11:56:22.839Z,53.01
2022-11-10T11:58:06.379Z,52.70
2022-11-10T11:59:58.205Z,52.75
2022-11-10T12:01:29.824Z,52.77
2022-11-10T12:03:14.020Z,52.67
2022-11-10T12:04:46.107Z,52.47
2022-11-10T12:06:23.519Z,52.32
2022-11-10T12:07:56.008Z,52.18
2022-11-10T12:09:30.693Z,51.97
2022-11-10T12:11:08.070Z,51.94
2022-11-10T12:12:58.298Z,51.80
2022-11-10T12:14:30.150Z,51.60
2022-11-10T12:16:11.062Z,51.52
2022-11-10T12:17:54.862Z,51.09
2022-11-10T12:19:48.506Z,51.11
2022-11-10T12:21:24.645Z,50.73
2022-11-10T12:23:07.506Z,50.61
2022-11-10T12:24:48.605Z,50.46
2022-11-10T12:26:39.430Z,50.48
2022-11-10T12:28:16.373Z,50.33
2022-11-10T12:29:58.718Z,50.30
2022-11-10T12:31:30.847Z,50.52
2022-11-10T12:33:04.580Z,50.36
2022-11-10T12:34:44.326Z,50.45
2022-11-10T12:36:16.870Z,50.42
2022-11-10T12:37:56.147Z,50.11
2022-11-10T12:39:31.000Z,49.99
2022-11-10T12:41:03.253Z,49.61
2022-11-10T12:42:34.924Z,49.40
2022-11-10T12:44:08.367Z,49.24
2022-11-10T12:45:41.259Z,49.27
2022-11-10T12:47:14.648Z,49.33
2022-11-10T12:48:55.348Z,49.11
2022-11-10T12:50:27.174Z,49.05
2022-11-10T12:52:21.910Z,48.96
2022-11-10T12:53:53.649Z,49.14
2022-11-10T12:55:49.109Z,49.05
2022-11-10T12:57:22.067Z,48.95
2022-11-10T12:59:13.007Z,49.17
2022-11-10T13:01:05.206Z,48.77
2022-11-10T13:02:43.958Z,49.00
2022-11-10T13:04:15.743Z,48.74
2022-11-10T13:05:47.977Z,48.69
2022-11-10T13:07:19.708Z,48.30
2022-11-10T13:08:51.815Z,48.27
2022-11-10T13:10:24.077Z,48.18
2022-11-10T13:12:10.921Z,48.14
2022-11-10T13:13:53.157Z,47.95
2022-11-10T13:15:39.276Z,47.78
2022-11-10T13:17:26.217Z,47.70
2022-11-10T13:18:57.937Z,47.51
2022-11-10T13:20:42.027Z,47.45
2022-11-10T13:22:28.473Z,47.72
2022-11-10T13:24:03.221Z,47.58
2022-11-10T13:25:37.854Z,47.37
2022-11-10T13:27:32.817Z,47.16
2022-11-10T13:29:04.513Z,47.22
2022-11-10T13:30:43.815Z,47.04
2022-11-10T13:32:15.792Z,47.04
2022-11-10T13:34:03.904Z,47.02
2022-11-10T13:35:38.509Z,46.91
2022-11-10T13:37:25.676Z,46.94
2022-11-10T13:38:57.492Z,46.81
2022-11-10T13:40:31.175Z,46.89
2022-11-10T13:42:03.525Z,46.89
2022-11-10T13:43:35.280Z,46.79
2022-11-10T13:45:25.380Z,46.85
2022-11-10T13:46:57.226Z,46.66
2022-11-10T13:48:35.203Z,46.51
2022-11-10T13:50:21.873Z,46.80
2022-11-10T13:52:06.558Z,46.57
2022-11-10T13:53:38.745Z,46.65
2022-11-10T13:55:25.628Z,46.61
2022-11-10T13:57:04.929Z,46.26
2022-11-10T13:58:36.924Z,46.17
2022-11-10T14:00:15.018Z,46.19
2022-11-10T14:01:47.048Z,46.05
2022-11-10T14:03:53.525Z,46.07
2022-11-10T14:05:48.826Z,46.24
2022-11-10T14:07:20.474Z,45.98
2022-11-10T14:08:55.520Z,45.90
2022-11-10T14:10:33.447Z,45.79
2022-11-10T14:12:23.765Z,45.92
2022-11-10T14:14:14.193Z,45.69
2022-11-10T14:15:46.420Z,45.83
2022-11-10T14:17:19.466Z,45.79
2022-11-10T14:18:51.049Z,45.60
2022-11-10T14:20:55.298Z,45.69
2022-11-10T14:22:42.380Z,45.74
2022-11-10T14:24:19.911Z,45.71
2022-11-10T14:25:54.364Z,45.81
2022-11-10T14:27:27.001Z,45.61
2022-11-10T14:29:19.053Z,45.53
2022-11-10T14:30:51.153Z,45.74
2022-11-10T14:32:23.239Z,45.61
2022-11-10T14:33:58.022Z,45.81
2022-11-10T14:35:30.430Z,45.65
2022-11-10T14:37:02.320Z,45.65
2022-11-10T14:38:35.857Z,45.65
2022-11-10T14:40:15.949Z,45.54
2022-11-10T14:41:47.885Z,45.59
2022-11-10T14:43:29.881Z,45.70
2022-11-10T14:45:08.566Z,45.65
2022-11-10T14:46:40.104Z,45.78
2022-11-10T14:48:22.867Z,45.93
2022-11-10T14:50:13.025Z,46.14
2022-11-10T14:51:44.774Z,46.04
2022-11-10T14:53:16.584Z,46.07
2022-11-10T14:54:48.515Z,46.07
2022-11-10T14:56:30.352Z,46.18
2022-11-10T14:58:16.471Z,46.31
2022-11-10T14:59:48.102Z,46.49
2022-11-10T15:01:35.677Z,46.36
2022-11-10T15:03:07.781Z,46.39
2022-11-10T15:04:39.471Z,46.38
2022-11-10T15:06:11.543Z,46.36
2022-11-10T15:07:43.131Z,46.45
2022-11-10T15:09:15.347Z,47.09
2022-11-10T15:10:48.038Z,47.07
2022-11-10T15:12:20.512Z,46.79
2022-11-10T15:13:52.615Z,46.67
2022-11-10T15:15:24.224Z,46.98
2022-11-10T15:17:06.260Z,46.78
2022-11-10T15:18:38.011Z,47.02
2022-11-10T15:20:27.832Z,47.61
2022-11-10T15:22:11.775Z,47.64
2022-11-10T15:23:44.285Z,47.67
2022-11-10T15:25:16.977Z,47.75
2022-11-10T15:26:48.796Z,47.56
2022-11-10T15:28:23.452Z,47.63
2022-11-10T15:29:56.073Z,47.73
2022-11-10T15:31:28.446Z,47.92
2022-11-10T15:33:02.453Z,47.66
2022-11-10T15:34:42.128Z,47.68
2022-11-10T15:36:19.777Z,47.89
2022-11-10T15:37:58.193Z,48.09
2022-11-10T15:39:30.408Z,48.21
2022-11-10T15:41:27.434Z,48.13
2022-11-10T15:43:18.163Z,48.34
2022-11-10T15:44:49.825Z,48.26
2022-11-10T15:46:22.329Z,48.28
2022-11-10T15:47:53.996Z,48.56
2022-11-10T15:49:26.950Z,48.75
2022-11-10T15:50:59.207Z,48.82
2022-11-10T15:52:30.898Z,48.77
2022-11-10T15:54:02.517Z,49.08
2022-11-10T15:55:35.673Z,48.97
2022-11-10T15:57:14.705Z,49.16
2022-11-10T15:58:47.246Z,49.19
2022-11-10T16:00:19.089Z,49.64
2022-11-10T16:01:50.932Z,49.15
2022-11-10T16:03:22.956Z,49.05
2022-11-10T16:04:59.562Z,49.06
2022-11-10T16:06:32.592Z,50.04
2022-11-10T16:08:05.632Z,49.48
2022-11-10T16:09:37.317Z,50.11
2022-11-10T16:11:19.845Z,50.08
2022-11-10T16:12:51.415Z,50.17
2022-11-10T16:14:23.181Z,49.79
2022-11-10T16:15:54.933Z,50.20
2022-11-10T16:17:26.669Z,49.73
2022-11-10T16:18:58.361Z,49.48
2022-11-10T16:20:30.178Z,49.88
2022-11-10T16:22:01.858Z,49.71
2022-11-10T16:23:33.584Z,49.34
2022-11-10T16:25:05.613Z,49.83
2022-11-10T16:26:37.553Z,49.46
2022-11-10T16:28:10.637Z,49.44
2022-11-10T16:29:42.320Z,49.71
2022-11-10T16:31:14.463Z,49.05
2022-11-10T16:32:46.147Z,49.33
2022-11-10T16:34:17.714Z,50.10
2022-11-10T16:35:50.051Z,49.84
2022-11-10T16:37:21.795Z,50.02
2022-11-10T16:38:53.715Z,50.07
2022-11-10T16:40:25.529Z,50.49
2022-11-10T16:41:57.310Z,50.28
2022-11-10T16:43:29.405Z,50.17
2022-11-10T16:45:01.446Z,50.48
2022-11-10T16:46:33.777Z,50.74
2022-11-10T16:48:06.371Z,50.45
2022-11-10T16:49:38.379Z,50.30
2022-11-10T16:51:11.449Z,51.13
2022-11-10T16:52:43.218Z,50.85
2022-11-10T16:54:14.926Z,50.91
2022-11-10T16:55:46.544Z,50.82
2022-11-10T16:57:18.297Z,51.22
2022-11-10T16:58:50.738Z,51.04
2022-11-10T17:00:22.580Z,51.07
2022-11-10T17:01:54.568Z,50.78
2022-11-10T17:03:32.251Z,51.00
2022-11-10T17:05:04.588Z,51.17
2022-11-10T17:06:36.755Z,51.12
2022-11-10T17:08:10.266Z,51.32
2022-11-10T17:09:41.954Z,51.31
2022-11-10T17:11:13.568Z,50.94
2022-11-10T17:12:45.221Z,51.39
2022-11-10T17:14:18.141Z,51.07
2022-11-10T17:15:49.916Z,50.70
2022-11-10T17:17:22.598Z,51.36
2022-11-10T17:18:54.934Z,51.71
2022-11-10T17:20:28.836Z,51.61
2022-11-10T17:22:00.442Z,51.88
2022-11-10T17:23:32.109Z,51.99
2022-11-10T17:25:04.012Z,51.56
2022-11-10T17:26:36.114Z,52.21
2022-11-10T17:28:10.442Z,52.28
2022-11-10T17:29:42.761Z,52.12
2022-11-10T17:31:16.062Z,52.46
2022-11-10T17:33:05.121Z,52.30
2022-11-10T17:34:37.541Z,51.93
2022-11-10T17:36:18.642Z,52.39
2022-11-10T17:37:51.898Z,52.19
2022-11-10T17:39:23.787Z,52.21
2022-11-10T17:40:56.247Z,51.84
2022-11-10T17:42:28.166Z,51.95
2022-11-10T17:43:59.870Z,52.50
2022-11-10T17:45:31.794Z,52.56
2022-11-10T17:47:03.662Z,51.72
2022-11-10T17:48:35.427Z,52.47
2022-11-10T17:50:07.514Z,52.47
2022-11-10T17:51:39.494Z,52.87
2022-11-10T17:53:21.369Z,52.51
2022-11-10T17:54:53.234Z,52.24
2022-11-10T17:56:24.816Z,53.20
2022-11-10T17:57:57.527Z,53.16
2022-11-10T17:59:29.146Z,52.80
2022-11-10T18:01:01.549Z,52.56
2022-11-10T18:02:33.146Z,52.48
2022-11-10T18:04:05.087Z,52.93
2022-11-10T18:05:36.708Z,52.71
2022-11-10T18:07:08.576Z,53.18
2022-11-10T18:08:40.402Z,53.13
2022-11-10T18:10:14.874Z,52.65
2022-11-10T18:11:46.580Z,52.98
2022-11-10T18:13:18.908Z,52.70
2022-11-10T18:14:50.471Z,52.81
2022-11-10T18:16:22.720Z,52.87
2022-11-10T18:17:59.953Z,53.55
2022-11-10T18:19:32.786Z,52.81
2022-11-10T18:21:04.966Z,52.84
2022-11-10T18:22:36.712Z,53.06
2022-11-10T18:24:08.351Z,52.37
2022-11-10T18:25:40.584Z,52.31
2022-11-10T18:27:12.875Z,52.50
2022-11-10T18:28:48.615Z,52.73
2022-11-10T18:30:20.246Z,52.75
2022-11-10T18:31:51.888Z,53.01
2022-11-10T18:33:23.818Z,52.85
2022-11-10T18:34:56.378Z,53.51
2022-11-10T18:36:28.366Z,53.94
2022-11-10T18:38:00.521Z,53.32
2022-11-10T18:39:32.310Z,53.33
2022-11-10T18:41:22.538Z,53.55
2022-11-10T18:42:59.879Z,54.33
2022-11-10T18:44:37.406Z,53.90
2022-11-10T18:46:09.150Z,54.22
2022-11-10T18:47:40.876Z,53.92
2022-11-10T18:49:13.064Z,54.25
2022-11-10T18:50:46.462Z,53.19
2022-11-10T18:52:18.580Z,53.42
2022-11-10T18:53:50.966Z,53.22
2022-11-10T18:55:22.775Z,53.56
2022-11-10T18:56:55.107Z,53.08
2022-11-10T18:58:26.791Z,54.16
2022-11-10T18:59:58.356Z,54.13
2022-11-10T19:01:30.219Z,54.31
2022-11-10T19:03:02.606Z,53.95
2022-11-10T19:04:34.235Z,54.38
2022-11-10T19:06:05.994Z,53.75
2022-11-10T19:07:37.638Z,54.48
2022-11-10T19:09:09.451Z,54.07
2022-11-10T19:10:44.449Z,54.13
2022-11-10T19:12:16.353Z,54.80
2022-11-10T19:13:48.681Z,54.63
2022-11-10T19:15:21.377Z,54.68
2022-11-10T19:16:53.105Z,54.65
2022-11-10T19:18:24.877Z,54.42
2022-11-10T19:19:57.050Z,54.39
2022-11-10T19:21:28.759Z,54.56
2022-11-10T19:23:01.025Z,54.07
2022-11-10T19:24:42.264Z,54.62
2022-11-10T19:26:22.711Z,54.59
2022-11-10T19:27:54.910Z,54.48
2022-11-10T19:29:26.769Z,54.69
2022-11-10T19:31:04.187Z,54.28
2022-11-10T19:32:35.879Z,54.88
2022-11-10T19:34:07.558Z,55.18
2022-11-10T19:35:42.936Z,55.30
2022-11-10T19:37:14.529Z,55.59
2022-11-10T19:38:46.147Z,54.54
2022-11-10T19:40:17.933Z,54.68
2022-11-10T19:41:49.917Z,54.75
2022-11-10T19:43:21.775Z,54.57
2022-11-10T19:44:53.527Z,55.11
2022-11-10T19:46:26.142Z,54.96
2022-11-10T19:47:59.764Z,54.79
2022-11-10T19:49:32.439Z,54.33
2022-11-10T19:51:04.333Z,54.89
2022-11-10T19:52:36.028Z,54.61
2022-11-10T19:54:09.066Z,54.94
2022-11-10T19:55:40.591Z,55.11
2022-11-10T19:57:12.504Z,54.91
2022-11-10T19:58:44.530Z,55.15
2022-11-10T20:00:17.032Z,55.11
2022-11-10T20:01:48.684Z,54.86
2022-11-10T20:03:20.489Z,54.89
2022-11-10T20:05:11.145Z,55.27
2022-11-10T20:06:42.971Z,55.17
2022-11-10T20:08:15.796Z,55.11
2022-11-10T20:09:47.404Z,55.07
2022-11-10T20:11:23.184Z,55.64
2022-11-10T20:12:55.350Z,55.70
2022-11-10T20:14:28.064Z,55.26
2022-11-10T20:15:59.877Z,55.79